Time;durP1;ratioP1;P1;durP2;ratioP2;P2;SDS_P1;SDS_P2;PMS_P1;PMS_P2;Temp;Humidity;BMP_temperature;BMP_pressure;BME280_temperature;BME280_humidity;BME280_pressure;Samples;Min_cycle;Max_cycle;Signal;HPM_P1;HPM_P2
2023/11/02 00:02:27;;;;;;;10.73;2.28;;;27.20;26.70;;;;;;4988635;28;20092;-68
2023/11/02 00:04:55;;;;;;;8.13;1.95;;;27.20;27.20;;;;;;4988817;28;20044;-67
2023/11/02 00:07:22;;;;;;;12.32;2.03;;;27.00;27.10;;;;;;4988560;28;20540;-67
2023/11/02 00:09:51;;;;;;;8.48;1.90;;;26.90;27.10;;;;;;4987422;28;20044;-66
2023/11/02 00:12:25;;;;;;;16.02;2.15;;;26.80;27.10;;;;;;4988360;28;20053;-67
2023/11/02 00:14:52;;;;;;;7.45;1.52;;;26.70;27.10;;;;;;4988696;28;20519;-68
2023/11/02 00:17:35;;;;;;;6.43;1.77;;;26.60;27.00;;;;;;4988574;28;20150;-68
2023/11/02 00:20:04;;;;;;;16.60;3.60;;;26.50;26.80;;;;;;4988855;28;20061;-67
2023/11/02 00:22:31;;;;;;;20.85;3.10;;;26.40;27.30;;;;;;4988563;28;20487;-65
2023/11/02 00:25:05;;;;;;;10.30;3.08;;;26.30;27.60;;;;;;4989040;28;20055;-66
2023/11/02 00:27:34;;;;;;;12.60;2.75;;;26.20;27.80;;;;;;4988408;28;20534;-66
2023/11/02 00:30:01;;;;;;;8.80;2.67;;;26.10;28.10;;;;;;4988566;28;20140;-65
2023/11/02 00:32:27;;;;;;;15.35;2.67;;;26.00;28.20;;;;;;4988437;28;20072;-66
2023/11/02 00:34:54;;;;;;;16.13;2.97;;;25.80;28.30;;;;;;4988388;28;20060;-67
2023/11/02 00:37:22;;;;;;;10.73;2.58;;;25.70;28.30;;;;;;4988264;28;20074;-64
2023/11/02 00:39:49;;;;;;;16.80;2.28;;;25.60;28.40;;;;;;4988575;28;20061;-67
2023/11/02 00:42:16;;;;;;;22.65;2.58;;;25.50;28.20;;;;;;4988024;28;20529;-65
2023/11/02 00:44:46;;;;;;;11.82;2.70;;;25.40;28.70;;;;;;4988260;28;20544;-67
2023/11/02 00:47:16;;;;;;;13.73;2.42;;;25.30;28.90;;;;;;4988387;28;20537;-67
2023/11/02 00:49:43;;;;;;;17.52;2.97;;;25.10;29.40;;;;;;4995953;28;20068;-65
2023/11/02 00:52:11;;;;;;;17.63;2.50;;;25.00;29.70;;;;;;4995045;28;20097;-66
2023/11/02 00:54:58;;;;;;;21.23;3.17;;;24.80;29.70;;;;;;4988932;28;20064;-66
2023/11/02 00:57:28;;;;;;;22.35;4.32;;;24.70;30.00;;;;;;4999025;28;20151;-67
2023/11/02 00:59:57;;;;;;;18.75;3.90;;;24.50;30.80;;;;;;4988600;28;20148;-68
2023/11/02 01:02:24;;;;;;;33.25;4.78;;;24.30;31.20;;;;;;4988439;28;20166;-67
2023/11/02 01:04:55;;;;;;;22.23;4.50;;;24.20;31.20;;;;;;4988623;28;20078;-67
2023/11/02 01:07:22;;;;;;;29.60;4.80;;;24.10;31.80;;;;;;4988219;28;20087;-65
2023/11/02 01:09:51;;;;;;;25.73;5.28;;;24.00;32.10;;;;;;4987893;28;20069;-66
2023/11/02 01:12:33;;;;;;;30.15;5.10;;;23.90;32.50;;;;;;4988548;28;20085;-66
2023/11/02 01:15:10;;;;;;;45.10;5.75;;;23.80;33.20;;;;;;4991678;28;20080;-66
2023/11/02 01:17:45;;;;;;;36.75;5.35;;;23.70;33.60;;;;;;4991848;28;20076;-68
2023/11/02 01:20:53;;;;;;;32.35;5.50;;;23.50;33.30;;;;;;4990800;28;20074;-67
2023/11/02 01:23:21;;;;;;;40.65;5.35;;;23.40;33.40;;;;;;4992040;28;20153;-67
2023/11/02 01:25:50;;;;;;;41.35;6.10;;;23.30;33.50;;;;;;4992064;28;20129;-66
2023/11/02 01:28:19;;;;;;;36.83;6.68;;;23.20;34.00;;;;;;4991652;28;20167;-66
2023/11/02 01:30:53;;;;;;;47.45;7.25;;;23.10;33.80;;;;;;4992076;28;20123;-67
2023/11/02 01:33:34;;;;;;;47.03;8.50;;;23.00;34.50;;;;;;4991092;28;20079;-67
2023/11/02 01:36:07;;;;;;;48.85;8.85;;;22.90;34.80;;;;;;4991480;28;20085;-66
2023/11/02 01:38:35;;;;;;;40.88;7.95;;;22.80;35.20;;;;;;4991481;28;20441;-66
2023/11/02 01:41:06;;;;;;;51.10;8.77;;;22.70;35.20;;;;;;4991880;28;20169;-66
2023/11/02 01:43:57;;;;;;;41.35;7.32;;;22.60;35.50;;;;;;4990574;28;20084;-66
2023/11/02 01:46:45;;;;;;;44.70;7.32;;;22.50;35.70;;;;;;4992375;28;20496;-65
2023/11/02 01:49:51;;;;;;;50.50;7.88;;;22.40;35.80;;;;;;4994775;28;20081;-66
2023/11/02 01:53:05;;;;;;;48.83;7.03;;;22.40;36.60;;;;;;4990363;28;20163;-68
2023/11/02 01:55:37;;;;;;;48.97;7.13;;;22.30;36.40;;;;;;4992762;28;20101;-66
2023/11/02 01:58:17;;;;;;;48.30;7.95;;;22.10;36.60;;;;;;4990797;28;20095;-67
2023/11/02 02:00:55;;;;;;;60.38;7.20;;;22.10;36.80;;;;;;4991226;28;20094;-66
2023/11/02 02:03:28;;;;;;;52.03;8.40;;;21.90;37.40;;;;;;4991055;28;20105;-65
2023/11/02 02:06:23;;;;;;;58.60;7.97;;;21.90;37.70;;;;;;4990502;28;20144;-65
2023/11/02 02:08:55;;;;;;;63.92;8.15;;;21.80;37.90;;;;;;4989756;28;20090;-67
2023/11/02 02:12:10;;;;;;;68.55;8.88;;;21.70;38.30;;;;;;4989561;28;20136;-67
2023/11/02 02:15:00;;;;;;;65.65;9.13;;;21.70;38.20;;;;;;4988431;28;20085;-65
2023/11/02 02:17:33;;;;;;;100.72;10.50;;;21.60;38.70;;;;;;4987573;28;20578;-65
2023/11/02 02:20:12;;;;;;;70.57;10.15;;;21.50;38.40;;;;;;4987685;28;20082;-64
2023/11/02 02:22:51;;;;;;;51.15;8.30;;;21.50;38.80;;;;;;4971569;28;20098;-66
2023/11/02 02:25:33;;;;;;;72.43;10.05;;;21.40;39.00;;;;;;4987517;28;20083;-65
2023/11/02 02:28:25;;;;;;;73.40;10.27;;;21.30;38.50;;;;;;4987960;28;20079;-66
2023/11/02 02:31:25;;;;;;;78.05;11.27;;;21.30;38.80;;;;;;4988618;28;20122;-66
2023/11/02 02:34:15;;;;;;;75.93;11.82;;;21.20;38.60;;;;;;4983130;28;20162;-66
2023/11/02 02:36:54;;;;;;;95.80;12.23;;;21.20;39.20;;;;;;4987839;28;20535;-67
2023/11/02 02:39:24;;;;;;;86.07;12.32;;;21.10;39.20;;;;;;4987741;28;20092;-66
2023/11/02 02:41:59;;;;;;;97.05;13.18;;;21.00;39.70;;;;;;4955937;28;20700;-65
2023/11/02 02:44:28;;;;;;;93.47;13.15;;;21.00;39.80;;;;;;4987649;28;20205;-65
2023/11/02 02:46:56;;;;;;;80.25;13.13;;;20.90;39.80;;;;;;4987755;28;20083;-67
2023/11/02 02:49:25;;;;;;;104.35;12.55;;;20.90;39.80;;;;;;4995623;28;20091;-66
2023/11/02 02:51:56;;;;;;;91.00;12.45;;;20.80;39.90;;;;;;5002495;28;20110;-67
2023/11/02 02:54:23;;;;;;;84.57;13.30;;;20.70;40.80;;;;;;4990305;28;20078;-67
2023/11/02 02:56:51;;;;;;;99.25;13.95;;;20.60;40.40;;;;;;4997266;28;20082;-64
2023/11/02 02:59:20;;;;;;;82.97;13.25;;;20.70;40.40;;;;;;4999064;28;20078;-66
2023/11/02 03:01:48;;;;;;;85.10;13.57;;;20.60;40.40;;;;;;4989439;28;20095;-66
2023/11/02 03:04:19;;;;;;;86.38;13.38;;;20.60;41.20;;;;;;4994811;28;20074;-65
2023/11/02 03:06:59;;;;;;;81.15;14.15;;;20.60;40.80;;;;;;4995720;28;20077;-67
2023/11/02 03:09:30;;;;;;;104.20;15.45;;;20.50;40.70;;;;;;4994132;28;20089;-66
2023/11/02 03:12:02;;;;;;;106.47;15.02;;;20.50;41.10;;;;;;4999147;28;20087;-66
2023/11/02 03:14:30;;;;;;;101.30;15.30;;;20.50;40.90;;;;;;4989523;28;20076;-66
2023/11/02 03:17:20;;;;;;;99.40;15.57;;;20.40;40.70;;;;;;4989731;28;20094;-66
2023/11/02 03:19:50;;;;;;;82.70;14.85;;;20.30;40.60;;;;;;4989585;28;20074;-67
2023/11/02 03:22:20;;;;;;;84.85;15.07;;;20.30;40.70;;;;;;4989698;28;20081;-67
2023/11/02 03:24:59;;;;;;;105.18;16.02;;;20.30;41.70;;;;;;4990770;28;20071;-64
2023/11/02 03:27:40;;;;;;;96.20;16.30;;;20.20;41.80;;;;;;4989718;28;20085;-65
2023/11/02 03:30:14;;;;;;;85.60;16.17;;;20.20;42.20;;;;;;5000110;28;20531;-66
2023/11/02 03:32:59;;;;;;;101.60;16.38;;;20.10;41.60;;;;;;4988880;28;20144;-65
2023/11/02 03:35:58;;;;;;;108.50;16.88;;;20.10;40.90;;;;;;4987292;28;20469;-66
2023/11/02 03:38:47;;;;;;;98.53;17.40;;;20.10;41.30;;;;;;4988225;28;20164;-66
2023/11/02 03:42:12;;;;;;;91.72;16.85;;;20.00;41.90;;;;;;4988962;28;20075;-67
2023/11/02 03:44:50;;;;;;;87.45;18.65;;;20.00;42.10;;;;;;4960748;28;20118;-68
2023/11/02 03:47:39;;;;;;;98.25;18.77;;;19.90;42.30;;;;;;4988957;28;20166;-67
2023/11/02 03:50:28;;;;;;;106.18;19.73;;;19.90;41.50;;;;;;4997730;28;20169;-65
2023/11/02 03:53:25;;;;;;;99.28;19.45;;;19.80;41.50;;;;;;4988827;28;20162;-66
2023/11/02 03:56:11;;;;;;;103.70;20.27;;;19.80;42.20;;;;;;4989327;28;20086;-65
2023/11/02 03:59:05;;;;;;;115.35;21.00;;;19.70;42.30;;;;;;4989157;28;20554;-68
2023/11/02 04:01:36;;;;;;;121.53;23.63;;;19.70;42.20;;;;;;4989278;28;20581;-66
2023/11/02 04:04:11;;;;;;;107.78;23.08;;;19.70;42.60;;;;;;5004679;28;20086;-67
2023/11/02 04:07:10;;;;;;;128.18;24.25;;;19.70;42.90;;;;;;4988518;28;20073;-67
2023/11/02 04:09:57;;;;;;;113.25;23.80;;;19.60;42.50;;;;;;4987817;28;20461;-68
2023/11/02 04:12:37;;;;;;;101.63;23.83;;;19.60;42.00;;;;;;4989052;28;20075;-66
2023/11/02 04:15:06;;;;;;;126.53;25.58;;;19.50;41.80;;;;;;4987477;28;20086;-66
2023/11/02 04:17:32;;;;;;;141.38;26.80;;;19.40;41.70;;;;;;5006153;28;20660;-66
2023/11/02 04:20:00;;;;;;;139.00;26.70;;;19.40;41.90;;;;;;5001112;28;20150;-68
2023/11/02 04:22:27;;;;;;;111.55;25.20;;;19.40;42.20;;;;;;5000825;28;20552;-67
2023/11/02 04:24:53;;;;;;;155.02;27.40;;;19.30;42.70;;;;;;4997387;28;20082;-66
2023/11/02 04:27:20;;;;;;;141.07;27.95;;;19.30;42.40;;;;;;4988925;28;20083;-67
2023/11/02 04:29:46;;;;;;;146.60;28.58;;;19.30;42.20;;;;;;4988961;28;20076;-67
2023/11/02 04:32:13;;;;;;;115.50;26.48;;;19.30;42.70;;;;;;4988721;28;20136;-68
2023/11/02 04:34:40;;;;;;;135.10;28.05;;;19.30;42.50;;;;;;4987374;28;20079;-68
2023/11/02 04:37:16;;;;;;;107.72;25.70;;;19.20;43.20;;;;;;4988196;28;20095;-67
2023/11/02 04:39:46;;;;;;;103.03;27.92;;;19.20;42.40;;;;;;4988816;28;20086;-67
2023/11/02 04:42:15;;;;;;;113.53;27.30;;;19.10;42.40;;;;;;4988767;28;20087;-67
2023/11/02 04:44:43;;;;;;;123.28;26.42;;;19.10;42.10;;;;;;4987576;28;20069;-66
2023/11/02 04:47:09;;;;;;;102.72;25.67;;;19.10;42.70;;;;;;4987635;28;20079;-66
2023/11/02 04:49:36;;;;;;;106.35;26.17;;;19.00;42.70;;;;;;4995998;28;20471;-66
2023/11/02 04:52:04;;;;;;;104.35;28.13;;;19.00;42.50;;;;;;5006395;28;20079;-66
2023/11/02 04:54:31;;;;;;;101.93;26.00;;;18.90;42.10;;;;;;4993395;28;20182;-66
2023/11/02 04:56:59;;;;;;;99.93;26.95;;;19.00;41.80;;;;;;4991922;28;20788;-66
2023/11/02 04:59:25;;;;;;;89.70;25.77;;;18.90;42.30;;;;;;4992112;28;20083;-67
2023/11/02 05:01:53;;;;;;;83.65;23.65;;;18.90;41.80;;;;;;4992321;28;20102;-66
2023/11/02 05:04:20;;;;;;;69.75;20.25;;;18.90;41.20;;;;;;4991739;28;20076;-67
2023/11/02 05:06:46;;;;;;;60.78;20.20;;;18.90;42.00;;;;;;4997694;28;20443;-66
2023/11/02 05:09:13;;;;;;;81.72;19.88;;;18.90;42.30;;;;;;4998918;28;20443;-67
2023/11/02 05:11:39;;;;;;;66.43;18.25;;;18.80;41.60;;;;;;5007042;28;20080;-68
2023/11/02 05:14:05;;;;;;;71.88;19.55;;;18.80;41.40;;;;;;4991838;28;20446;-69
2023/11/02 05:16:32;;;;;;;70.65;18.67;;;18.70;41.60;;;;;;4998724;28;20098;-67
2023/11/02 05:18:58;;;;;;;83.97;18.63;;;18.70;41.50;;;;;;4992807;28;20539;-67
2023/11/02 05:21:25;;;;;;;68.40;16.17;;;18.80;41.40;;;;;;4991497;28;20631;-67
2023/11/02 05:23:51;;;;;;;62.60;16.50;;;18.70;41.70;;;;;;4992226;28;20077;-67
2023/11/02 05:26:17;;;;;;;55.08;15.48;;;18.70;41.80;;;;;;4991778;28;20080;-67
2023/11/02 05:28:47;;;;;;;58.65;15.43;;;18.70;41.60;;;;;;4991311;28;20163;-67
2023/11/02 05:31:14;;;;;;;52.40;15.55;;;18.60;41.70;;;;;;5002022;28;20091;-68
2023/11/02 05:33:42;;;;;;;50.58;14.65;;;18.60;42.10;;;;;;4990067;28;20175;-67
2023/11/02 05:36:09;;;;;;;51.85;14.35;;;18.50;41.60;;;;;;4991378;28;20233;-67
2023/11/02 05:38:36;;;;;;;59.70;16.50;;;18.50;41.70;;;;;;4990892;28;20100;-66
2023/11/02 05:41:02;;;;;;;51.50;15.43;;;18.50;41.40;;;;;;4990741;28;20485;-67
2023/11/02 05:43:29;;;;;;;44.97;15.20;;;18.50;41.50;;;;;;4990492;28;20449;-67
2023/11/02 05:45:56;;;;;;;51.28;16.90;;;18.40;42.20;;;;;;4992582;28;20483;-65
2023/11/02 05:48:22;;;;;;;57.03;14.95;;;18.40;42.20;;;;;;4993273;28;20085;-66
2023/11/02 05:50:49;;;;;;;54.85;13.95;;;18.40;42.00;;;;;;4990722;28;20170;-67
2023/11/02 05:53:15;;;;;;;44.55;14.80;;;18.40;42.20;;;;;;4992208;28;20531;-66
2023/11/02 05:55:42;;;;;;;56.15;14.43;;;18.30;42.70;;;;;;4988629;28;20105;-67
2023/11/02 05:58:08;;;;;;;38.45;12.40;;;18.30;42.90;;;;;;4991823;28;20436;-68
2023/11/02 06:00:37;;;;;;;42.58;13.98;;;18.30;43.00;;;;;;4991193;28;20115;-67
2023/11/02 06:03:03;;;;;;;62.50;15.07;;;18.20;43.50;;;;;;4990524;28;20176;-68
2023/11/02 06:05:30;;;;;;;85.35;28.38;;;18.20;44.10;;;;;;4991606;28;20080;-68
2023/11/02 06:07:56;;;;;;;58.75;15.05;;;18.10;44.00;;;;;;4992621;28;20075;-67
2023/11/02 06:10:23;;;;;;;57.00;13.98;;;18.10;44.20;;;;;;4990503;28;20170;-68
2023/11/02 06:12:49;;;;;;;40.45;14.35;;;18.00;44.20;;;;;;4990837;28;20514;-68
2023/11/02 06:15:15;;;;;;;49.55;14.25;;;18.00;43.70;;;;;;4989977;28;20187;-68
2023/11/02 06:17:42;;;;;;;56.05;14.45;;;17.90;43.80;;;;;;4990247;28;20100;-67
2023/11/02 06:20:09;;;;;;;56.67;14.07;;;17.90;43.90;;;;;;4992905;28;20087;-67
2023/11/02 06:22:36;;;;;;;44.95;15.07;;;17.90;43.50;;;;;;4990301;28;20088;-67
2023/11/02 06:25:03;;;;;;;53.03;14.95;;;17.80;44.30;;;;;;4995980;28;20088;-66
2023/11/02 06:27:29;;;;;;;54.72;15.00;;;17.80;44.90;;;;;;4993016;28;20126;-67
2023/11/02 06:29:55;;;;;;;51.33;14.10;;;17.70;44.90;;;;;;4989719;28;20104;-67
2023/11/02 06:32:22;;;;;;;57.70;14.82;;;17.60;44.90;;;;;;4989079;28;20139;-67
2023/11/02 06:34:49;;;;;;;60.20;14.02;;;17.60;44.80;;;;;;4990802;28;20492;-66
2023/11/02 06:37:18;;;;;;;47.10;13.82;;;17.60;44.50;;;;;;4990327;28;20573;-67
2023/11/02 06:39:45;;;;;;;55.35;13.38;;;17.60;44.20;;;;;;4990947;28;20139;-67
2023/11/02 06:42:15;;;;;;;56.63;13.48;;;17.60;45.20;;;;;;4989901;28;20093;-67
2023/11/02 06:44:43;;;;;;;49.28;13.25;;;17.50;45.30;;;;;;4992026;28;20151;-66
2023/11/02 06:47:11;;;;;;;55.00;13.52;;;17.50;45.70;;;;;;4989761;28;20093;-66
2023/11/02 06:49:37;;;;;;;69.90;14.20;;;17.40;45.60;;;;;;4997036;28;20088;-67
2023/11/02 06:52:05;;;;;;;55.65;13.02;;;17.30;45.30;;;;;;5000891;28;20609;-67
2023/11/02 06:54:31;;;;;;;61.53;14.20;;;17.30;45.40;;;;;;5000577;28;20171;-66
2023/11/02 06:56:59;;;;;;;51.97;13.20;;;17.20;46.60;;;;;;4991578;28;20088;-67
2023/11/02 06:59:27;;;;;;;54.97;12.73;;;17.20;47.00;;;;;;5001938;28;20484;-65
2023/11/02 07:01:54;;;;;;;58.15;12.35;;;17.20;46.80;;;;;;4996929;28;20100;-67
2023/11/02 07:04:21;;;;;;;66.75;13.10;;;17.10;47.40;;;;;;4989790;28;20088;-67
2023/11/02 07:06:48;;;;;;;55.22;12.85;;;17.20;46.90;;;;;;4990087;28;20076;-66
2023/11/02 07:09:15;;;;;;;52.40;12.70;;;17.20;46.70;;;;;;4989615;28;20089;-68
2023/11/02 07:11:41;;;;;;;46.08;12.90;;;17.20;46.20;;;;;;4989107;28;20448;-67
2023/11/02 07:14:08;;;;;;;58.85;12.52;;;17.20;46.40;;;;;;4989817;28;20139;-68
2023/11/02 07:16:35;;;;;;;59.22;12.35;;;17.20;46.40;;;;;;4988770;28;20564;-67
2023/11/02 07:19:01;;;;;;;52.17;12.13;;;17.10;46.80;;;;;;4989427;28;20096;-67
2023/11/02 07:21:27;;;;;;;41.60;12.02;;;17.10;47.30;;;;;;4990588;28;20163;-66
2023/11/02 07:23:56;;;;;;;49.40;12.25;;;17.10;47.50;;;;;;4995285;28;20076;-67
2023/11/02 07:26:22;;;;;;;48.78;12.45;;;17.10;47.20;;;;;;4991505;28;20081;-66
2023/11/02 07:28:48;;;;;;;51.10;13.05;;;17.00;46.80;;;;;;4990722;28;20155;-68
2023/11/02 07:31:18;;;;;;;59.75;13.45;;;17.10;46.90;;;;;;4988695;28;20200;-69
2023/11/02 07:33:44;;;;;;;54.20;12.63;;;17.00;46.80;;;;;;4989589;28;20164;-68
2023/11/02 07:36:14;;;;;;;53.75;13.15;;;17.00;47.70;;;;;;4989325;28;20134;-66
2023/11/02 07:38:40;;;;;;;58.28;13.40;;;16.90;47.60;;;;;;4989465;28;20096;-66
2023/11/02 07:41:07;;;;;;;42.25;11.82;;;17.00;47.40;;;;;;4988927;28;20103;-67
2023/11/02 07:43:34;;;;;;;57.03;13.60;;;17.00;47.20;;;;;;4989181;28;20077;-65
2023/11/02 07:46:01;;;;;;;44.05;12.40;;;16.90;47.30;;;;;;4989443;28;20085;-66
2023/11/02 07:48:30;;;;;;;65.15;13.80;;;16.90;47.60;;;;;;4989232;28;20103;-67
2023/11/02 07:50:56;;;;;;;51.20;12.18;;;16.80;48.10;;;;;;4999950;28;20076;-67
2023/11/02 07:53:23;;;;;;;55.20;12.00;;;16.70;48.00;;;;;;4995735;28;20627;-67
2023/11/02 07:55:49;;;;;;;56.22;13.20;;;16.70;47.80;;;;;;5002849;28;20119;-66
2023/11/02 07:58:16;;;;;;;49.92;12.07;;;16.70;47.50;;;;;;4991918;28;20073;-65
2023/11/02 08:00:42;;;;;;;53.42;14.00;;;16.70;47.30;;;;;;4996771;28;20097;-66
2023/11/02 08:03:09;;;;;;;50.80;12.35;;;16.70;48.00;;;;;;4987454;28;20556;-68
2023/11/02 08:05:35;;;;;;;62.60;13.15;;;16.70;48.40;;;;;;4994153;28;20102;-66
2023/11/02 08:08:02;;;;;;;43.53;12.80;;;16.60;48.90;;;;;;4987433;28;20084;-66
2023/11/02 08:10:30;;;;;;;43.30;13.13;;;16.50;48.70;;;;;;4999307;28;20080;-66
2023/11/02 08:12:56;;;;;;;53.13;13.50;;;16.50;48.50;;;;;;4993926;28;20628;-67
2023/11/02 08:15:23;;;;;;;44.70;11.73;;;16.50;49.10;;;;;;4988822;28;20532;-66
2023/11/02 08:17:49;;;;;;;44.55;11.50;;;16.50;49.10;;;;;;4998222;28;20476;-67
2023/11/02 08:20:15;;;;;;;51.92;10.70;;;16.50;48.50;;;;;;4986969;28;20091;-65
2023/11/02 08:22:42;;;;;;;41.08;10.73;;;16.40;47.60;;;;;;4991805;28;20081;-67
2023/11/02 08:25:09;;;;;;;48.40;10.95;;;16.40;47.40;;;;;;4989226;28;20109;-67
2023/11/02 08:27:36;;;;;;;45.08;11.25;;;16.40;48.10;;;;;;5005093;28;20107;-65
2023/11/02 08:30:05;;;;;;;47.70;11.82;;;16.30;48.90;;;;;;4987669;28;20080;-65
2023/11/02 08:32:31;;;;;;;40.90;11.85;;;16.40;48.60;;;;;;4988921;28;20484;-66
2023/11/02 08:34:59;;;;;;;51.55;11.32;;;16.40;48.40;;;;;;4994311;28;20081;-67
2023/11/02 08:37:26;;;;;;;51.78;12.23;;;16.30;48.70;;;;;;4987507;28;20100;-65
2023/11/02 08:39:52;;;;;;;51.45;11.07;;;16.30;48.50;;;;;;4989213;28;20131;-65
2023/11/02 08:42:19;;;;;;;54.80;11.40;;;16.30;48.00;;;;;;4988529;28;20445;-67
2023/11/02 08:44:45;;;;;;;45.13;9.30;;;16.40;47.40;;;;;;4999742;28;20088;-66
2023/11/02 08:47:12;;;;;;;52.28;9.48;;;16.40;46.90;;;;;;4988358;28;20590;-67
2023/11/02 08:49:38;;;;;;;35.90;8.85;;;16.40;46.30;;;;;;5007720;28;20111;-67
2023/11/02 08:52:05;;;;;;;41.92;8.70;;;16.60;46.40;;;;;;4990067;28;20163;-67
2023/11/02 08:54:32;;;;;;;31.83;7.80;;;16.50;46.30;;;;;;4991261;28;20084;-66
2023/11/02 08:56:58;;;;;;;34.13;7.03;;;16.50;46.10;;;;;;4996303;28;20095;-68
2023/11/02 08:59:25;;;;;;;47.92;8.75;;;16.50;46.20;;;;;;4990208;28;20086;-67
2023/11/02 09:01:51;;;;;;;41.55;7.72;;;16.40;46.30;;;;;;5000894;28;20464;-66
2023/11/02 09:04:19;;;;;;;35.95;8.05;;;16.40;46.60;;;;;;4991177;28;20536;-67
2023/11/02 09:06:46;;;;;;;26.50;7.05;;;16.40;46.70;;;;;;4986843;28;20120;-66
2023/11/02 09:09:12;;;;;;;36.55;7.28;;;16.30;46.40;;;;;;4987764;28;20595;-66
2023/11/02 09:11:38;;;;;;;34.38;6.63;;;16.20;46.40;;;;;;4993236;28;20546;-66
2023/11/02 09:14:05;;;;;;;34.78;6.47;;;16.10;46.50;;;;;;4987164;28;20082;-67
2023/11/02 09:16:31;;;;;;;21.42;5.40;;;16.20;46.50;;;;;;4988880;28;20577;-69
2023/11/02 09:18:58;;;;;;;26.95;5.20;;;16.20;45.70;;;;;;4987856;28;20073;-67
2023/11/02 09:21:25;;;;;;;32.22;5.43;;;16.20;45.20;;;;;;4988488;28;20617;-66
2023/11/02 09:23:52;;;;;;;25.92;5.38;;;16.30;44.30;;;;;;5001097;28;20078;-67
2023/11/02 09:26:18;;;;;;;17.42;4.10;;;16.10;43.70;;;;;;4987336;28;20079;-68
2023/11/02 09:28:44;;;;;;;18.27;4.13;;;16.10;43.50;;;;;;5003839;28;20457;-65
2023/11/02 09:31:12;;;;;;;13.40;3.45;;;16.10;43.20;;;;;;4989153;28;20571;-67
2023/11/02 09:33:39;;;;;;;15.05;3.05;;;16.10;42.40;;;;;;5000658;28;20113;-68
2023/11/02 09:36:07;;;;;;;18.52;3.42;;;16.10;42.00;;;;;;4997846;28;20087;-67
2023/11/02 09:38:33;;;;;;;12.63;2.67;;;16.20;42.10;;;;;;4999975;28;20644;-67
2023/11/02 09:40:59;;;;;;;20.52;3.35;;;16.30;42.10;;;;;;4991244;28;20104;-67
2023/11/02 09:43:26;;;;;;;15.75;2.97;;;16.30;42.10;;;;;;4990781;28;20071;-68
2023/11/02 09:45:53;;;;;;;9.70;2.88;;;16.20;43.00;;;;;;5007101;28;20434;-67
2023/11/02 09:48:19;;;;;;;16.33;2.97;;;16.20;43.40;;;;;;4994372;28;20561;-67
2023/11/02 09:50:46;;;;;;;10.98;2.85;;;16.20;43.60;;;;;;4992855;28;20701;-68
2023/11/02 09:53:13;;;;;;;15.40;2.85;;;16.10;44.40;;;;;;4999057;28;20086;-68
2023/11/02 09:55:41;;;;;;;12.77;2.97;;;16.00;44.30;;;;;;4999721;28;20162;-67
2023/11/02 09:58:09;;;;;;;10.95;2.60;;;15.90;44.30;;;;;;4995631;28;20077;-67
2023/11/02 10:00:36;;;;;;;11.30;3.05;;;15.90;43.70;;;;;;4989689;28;20574;-67
2023/11/02 10:03:03;;;;;;;12.48;2.95;;;15.90;43.50;;;;;;4993351;28;20553;-67
2023/11/02 10:05:30;;;;;;;9.50;3.00;;;15.90;44.00;;;;;;4991512;28;20546;-67
2023/11/02 10:07:56;;;;;;;12.73;3.28;;;15.90;43.60;;;;;;5002517;28;20077;-67
2023/11/02 10:10:23;;;;;;;10.70;3.03;;;15.90;43.30;;;;;;4991901;28;20557;-67
2023/11/02 10:12:50;;;;;;;13.30;2.97;;;16.00;42.70;;;;;;4992025;28;20101;-67
2023/11/02 10:15:17;;;;;;;11.35;3.30;;;16.00;42.60;;;;;;4990873;28;20071;-68
2023/11/02 10:17:44;;;;;;;10.57;3.55;;;15.90;42.80;;;;;;4990966;28;20495;-67
2023/11/02 10:20:17;;;;;;;13.10;3.30;;;15.90;42.60;;;;;;4996492;28;20090;-67
2023/11/02 10:23:05;;;;;;;16.15;3.42;;;15.90;42.50;;;;;;4989507;28;20085;-68
2023/11/02 10:25:32;;;;;;;16.48;3.13;;;16.00;42.40;;;;;;5003468;28;20114;-67
2023/11/02 10:28:00;;;;;;;16.63;3.67;;;16.00;42.60;;;;;;4992160;28;20073;-67
2023/11/02 10:30:27;;;;;;;15.02;3.63;;;16.00;42.40;;;;;;4992630;28;20095;-66
2023/11/02 10:33:01;;;;;;;10.43;3.50;;;15.90;42.70;;;;;;4991647;28;20161;-66
2023/11/02 10:35:27;;;;;;;10.95;3.40;;;15.90;42.40;;;;;;4988194;28;20213;-67
2023/11/02 10:37:54;;;;;;;15.43;3.28;;;15.90;41.40;;;;;;4995283;28;20161;-67
2023/11/02 10:40:20;;;;;;;19.90;3.53;;;16.00;41.30;;;;;;4989472;28;20510;-66
2023/11/02 10:42:49;;;;;;;9.98;3.75;;;16.00;40.90;;;;;;4996544;28;20078;-67
2023/11/02 10:45:16;;;;;;;14.18;3.47;;;16.00;41.60;;;;;;4989850;28;20091;-67
2023/11/02 10:47:45;;;;;;;11.80;4.18;;;15.90;41.70;;;;;;5002737;28;20074;-68
2023/11/02 10:50:17;;;;;;;7.47;3.78;;;16.00;41.30;;;;;;4995388;28;20453;-66
2023/11/02 10:52:46;;;;;;;12.93;3.60;;;15.90;40.90;;;;;;4989204;28;20173;-65
2023/11/02 10:55:33;;;;;;;15.20;3.80;;;15.90;40.40;;;;;;5002423;28;20124;-67
2023/11/02 10:58:01;;;;;;;19.05;4.38;;;15.90;40.80;;;;;;5002016;28;20093;-67
2023/11/02 11:00:28;;;;;;;16.42;4.82;;;15.90;41.10;;;;;;4994815;28;20110;-67
2023/11/02 11:02:55;;;;;;;20.98;8.27;;;15.80;41.20;;;;;;4999630;28;20164;-68
2023/11/02 11:05:23;;;;;;;17.50;7.97;;;15.80;40.80;;;;;;4991609;28;20089;-67
2023/11/02 11:07:56;;;;;;;12.68;6.28;;;15.90;41.00;;;;;;4992510;28;20086;-67
2023/11/02 11:10:22;;;;;;;9.88;5.10;;;16.00;40.80;;;;;;4989603;28;20087;-66
2023/11/02 11:12:50;;;;;;;13.93;4.97;;;15.90;41.40;;;;;;4997892;28;20282;-67
2023/11/02 11:15:17;;;;;;;12.98;4.30;;;15.80;42.20;;;;;;4989640;28;20128;-67
2023/11/02 11:17:46;;;;;;;8.25;3.63;;;15.70;41.60;;;;;;4993657;28;20075;-67
2023/11/02 11:20:15;;;;;;;8.75;3.50;;;15.70;41.20;;;;;;5003883;28;20553;-66
2023/11/02 11:22:44;;;;;;;11.05;3.10;;;15.70;41.30;;;;;;4994795;28;20075;-66
2023/11/02 11:25:10;;;;;;;9.35;2.90;;;15.60;43.00;;;;;;5000394;28;20078;-66
2023/11/02 11:27:43;;;;;;;5.05;2.90;;;15.50;42.80;;;;;;4992794;28;20094;-67
2023/11/02 11:30:22;;;;;;;9.65;2.83;;;15.60;42.00;;;;;;5001200;28;21081;-67
2023/11/02 11:32:49;;;;;;;9.23;3.10;;;15.60;41.70;;;;;;4991866;28;20086;-68
2023/11/02 11:35:19;;;;;;;17.50;3.30;;;15.50;41.80;;;;;;4990487;28;20518;-67
2023/11/02 11:37:49;;;;;;;7.68;3.17;;;15.50;43.60;;;;;;4998386;28;20124;-68
2023/11/02 11:40:24;;;;;;;9.95;3.35;;;15.50;44.20;;;;;;4993465;28;20116;-68
2023/11/02 11:43:16;;;;;;;7.30;3.08;;;15.50;42.80;;;;;;4991200;28;20075;-67
2023/11/02 11:45:46;;;;;;;16.30;3.40;;;15.50;42.20;;;;;;4998522;28;20132;-67
2023/11/02 11:48:32;;;;;;;15.57;3.60;;;15.50;42.20;;;;;;4994466;28;20546;-67
2023/11/02 11:50:59;;;;;;;11.23;3.28;;;15.50;42.20;;;;;;4987898;28;20082;-67
2023/11/02 11:53:26;;;;;;;10.23;3.22;;;15.50;41.60;;;;;;4994564;28;20121;-67
2023/11/02 11:55:55;;;;;;;15.40;4.07;;;15.50;41.80;;;;;;4983238;28;20090;-66
2023/11/02 11:58:37;;;;;;;15.77;3.70;;;15.50;41.90;;;;;;4999176;28;20118;-65
2023/11/02 12:01:04;;;;;;;9.70;3.50;;;15.50;42.30;;;;;;4991633;28;20107;-67
2023/11/02 12:03:36;;;;;;;;;;;15.40;42.60;;;;;;4993116;28;20562;-65
2023/11/02 12:06:12;;;;;;;20.08;3.97;;;15.30;42.10;;;;;;5002827;28;19970;-67
2023/11/02 12:08:43;;;;;;;16.10;3.60;;;15.30;42.80;;;;;;4994634;28;20079;-66
2023/11/02 12:11:12;;;;;;;14.88;3.42;;;15.30;42.70;;;;;;4987507;28;20103;-67
2023/11/02 12:14:00;;;;;;;11.57;3.88;;;15.40;43.20;;;;;;4988617;28;20100;-67
2023/11/02 12:16:34;;;;;;;13.30;3.85;;;15.40;43.30;;;;;;4995805;28;20190;-69
2023/11/02 12:19:01;;;;;;;12.15;3.53;;;15.40;43.40;;;;;;4992231;28;20395;-68
2023/11/02 12:21:28;;;;;;;10.80;3.42;;;15.30;43.80;;;;;;4986895;28;20083;-67
2023/11/02 12:23:55;;;;;;;25.02;5.35;;;15.30;44.10;;;;;;4997888;28;20068;-68
2023/11/02 12:26:25;;;;;;;12.45;4.07;;;15.30;44.40;;;;;;4999612;28;20075;-69
2023/11/02 12:28:56;;;;;;;16.33;4.45;;;15.30;45.50;;;;;;4990985;28;20113;-68
2023/11/02 12:31:26;;;;;;;18.65;4.90;;;15.30;45.10;;;;;;4986852;28;20079;-67
2023/11/02 12:33:53;;;;;;;17.00;5.50;;;15.30;45.30;;;;;;5001756;28;20451;-68
2023/11/02 12:36:19;;;;;;;17.77;5.28;;;15.30;45.40;;;;;;4995586;28;20093;-66
2023/11/02 12:38:49;;;;;;;26.75;5.88;;;15.20;45.60;;;;;;4990811;28;20116;-67
2023/11/02 12:41:26;;;;;;;19.30;4.88;;;15.20;45.70;;;;;;4988763;28;20067;-67
2023/11/02 12:44:04;;;;;;;20.63;5.53;;;15.20;46.10;;;;;;4987163;28;20476;-68
2023/11/02 12:46:32;;;;;;;26.58;5.78;;;15.00;46.30;;;;;;4992435;28;20103;-67
2023/11/02 12:49:21;;;;;;;24.55;6.57;;;15.00;46.80;;;;;;4992260;28;20178;-67
2023/11/02 12:51:54;;;;;;;33.95;8.07;;;15.00;46.90;;;;;;4990498;28;20114;-66